Time;durP1;ratioP1;P1;durP2;ratioP2;P2;SDS_P1;SDS_P2;PMS_P1;PMS_P2;Temp;Humidity;BMP_temperature;BMP_pressure;BME280_temperature;BME280_humidity;BME280_pressure;Samples;Min_cycle;Max_cycle;Signal;HPM_P1;HPM_P2
2022/08/01 00:04:27;;;;;;;4.55;2.08;;;;;;;22.32;58.27;100342.31;20858044;28;20049;-80
2022/08/01 00:14:29;;;;;;;4.55;2.38;;;;;;;22.12;61.27;100355.13;20875944;28;20123;-80
2022/08/01 00:24:32;;;;;;;4.63;2.63;;;;;;;21.94;61.96;100361.59;20829279;28;20058;-80
2022/08/01 00:34:35;;;;;;;5.13;2.83;;;;;;;21.80;62.40;100364.28;20853629;28;20056;-80
2022/08/01 00:44:36;;;;;;;6.40;3.13;;;;;;;21.65;63.57;100366.94;20873037;28;20222;-79
2022/08/01 00:54:38;;;;;;;5.60;2.50;;;;;;;21.55;65.58;100370.28;20878857;28;20274;-80
2022/08/01 01:04:39;;;;;;;5.85;2.42;;;;;;;21.39;67.61;100379.22;20870098;28;20523;-79
2022/08/01 01:14:44;;;;;;;4.60;2.70;;;;;;;21.30;69.19;100373.56;20858887;28;20102;-80
2022/08/01 01:24:45;;;;;;;4.72;2.58;;;;;;;21.22;71.17;100382.88;20871997;28;20161;-79
2022/08/01 01:34:47;;;;;;;6.15;2.40;;;;;;;21.12;74.07;100389.69;20854461;28;20057;-79
2022/08/01 01:44:48;;;;;;;5.78;2.67;;;;;;;21.08;74.64;100381.97;20896298;28;20082;-79
2022/08/01 01:54:49;;;;;;;5.15;2.45;;;;;;;20.91;75.92;100386.50;20840124;28;20128;-79
2022/08/01 02:04:52;;;;;;;4.70;2.70;;;;;;;20.86;77.95;100387.72;20846622;28;20041;-80
2022/08/01 02:14:53;;;;;;;4.05;2.40;;;;;;;20.75;79.28;100391.03;20855999;28;20441;-79
2022/08/01 02:24:55;;;;;;;4.68;2.47;;;;;;;20.62;81.20;100390.84;20846476;28;20054;-80
2022/08/01 02:34:56;;;;;;;4.85;2.63;;;;;;;20.54;82.63;100398.41;20844663;28;20131;-80
2022/08/01 02:44:58;;;;;;;6.95;2.72;;;;;;;20.38;83.93;100403.72;20850079;28;20057;-80
2022/08/01 02:54:59;;;;;;;6.45;2.92;;;;;;;20.22;86.70;100408.19;20848294;28;20056;-80
2022/08/01 03:05:01;;;;;;;5.03;2.97;;;;;;;20.12;87.73;100406.97;20871086;28;20064;-79
2022/08/01 03:15:02;;;;;;;5.07;2.58;;;;;;;20.03;88.56;100403.03;20858065;28;20049;-80
2022/08/01 03:25:03;;;;;;;4.47;2.70;;;;;;;19.89;90.91;100400.28;20851180;28;20048;-80
2022/08/01 03:35:05;;;;;;;4.72;2.67;;;;;;;19.80;91.43;100411.38;20861808;28;20074;-80
2022/08/01 03:45:06;;;;;;;5.50;3.05;;;;;;;19.81;91.24;100410.44;20885887;28;20055;-80
2022/08/01 03:55:13;;;;;;;5.22;2.80;;;;;;;19.70;92.64;100406.56;20880117;28;20054;-80
2022/08/01 04:05:14;;;;;;;5.93;2.70;;;;;;;19.60;93.53;100402.69;20884111;22;20057;-70
2022/08/01 04:15:16;;;;;;;5.70;2.92;;;;;;;19.52;95.01;100410.16;20815570;28;20049;-70
2022/08/01 04:25:17;;;;;;;5.10;2.85;;;;;;;19.57;95.79;100410.78;20814667;28;20690;-70
2022/08/01 04:35:18;;;;;;;5.40;2.58;;;;;;;19.58;96.76;100419.59;20814630;28;20045;-70
2022/08/01 04:45:40;;;;;;;9.15;3.00;;;;;;;19.67;96.70;100427.97;20816137;28;20061;-69
2022/08/01 04:55:41;;;;;;;5.40;2.92;;;;;;;20.20;92.68;100437.50;20813307;28;20057;-72
2022/08/01 05:05:42;;;;;;;6.00;3.05;;;;;;;20.35;91.09;100429.63;20810832;28;20413;-72
2022/08/01 05:15:44;;;;;;;5.47;2.90;;;;;;;20.52;90.46;100426.91;20818558;28;20490;-72
2022/08/01 05:25:45;;;;;;;4.13;2.58;;;;;;;20.64;90.70;100433.31;20810883;28;20084;-70
2022/08/01 05:35:57;;;;;;;5.45;2.95;;;;;;;20.96;89.31;100431.47;20846212;28;20504;-71
2022/08/01 05:45:59;;;;;;;4.93;2.75;;;;;;;20.98;90.31;100430.47;20894255;28;20036;-71
2022/08/01 05:56:01;;;;;;;6.25;2.83;;;;;;;21.30;90.84;100438.34;20868307;28;20049;-71
2022/08/01 06:06:02;;;;;;;4.43;2.20;;;;;;;21.61;87.80;100436.53;20807221;28;20107;-72
2022/08/01 06:16:04;;;;;;;4.78;2.50;;;;;;;22.03;85.38;100451.66;20807723;28;20433;-71
2022/08/01 06:26:05;;;;;;;5.25;2.15;;;;;;;22.50;82.36;100451.34;20807351;28;20053;-70
2022/08/01 06:36:07;;;;;;;5.22;1.90;;;;;;;22.52;82.82;100453.94;20806679;28;20521;-69
2022/08/01 06:46:08;;;;;;;6.22;1.55;;;;;;;22.91;79.81;100442.50;20812680;28;20049;-70
2022/08/01 06:56:09;;;;;;;4.25;1.95;;;;;;;23.26;76.58;100460.63;20842639;28;20049;-70
2022/08/01 07:06:11;;;;;;;5.47;1.77;;;;;;;23.43;75.69;100452.34;20861141;28;20045;-70
2022/08/01 07:16:12;;;;;;;6.70;1.90;;;;;;;23.62;74.62;100457.28;20903431;28;20069;-69
2022/08/01 07:26:13;;;;;;;4.10;1.50;;;;;;;23.99;70.86;100438.66;20884487;28;20045;-68
2022/08/01 07:36:15;;;;;;;2.75;0.95;;;;;;;23.99;65.44;100449.38;20900207;28;20048;-68
2022/08/01 07:46:16;;;;;;;2.67;1.08;;;;;;;23.87;64.21;100439.56;20900164;28;20048;-68
2022/08/01 07:56:17;;;;;;;3.15;1.10;;;;;;;23.88;66.03;100435.91;20898060;28;21385;-68
2022/08/01 08:06:19;;;;;;;2.85;1.23;;;;;;;24.06;64.37;100442.63;20898375;28;20052;-68
2022/08/01 08:16:20;;;;;;;2.03;1.05;;;;;;;24.05;65.76;100423.06;20897392;28;20053;-69
2022/08/01 08:26:23;;;;;;;3.38;0.98;;;;;;;24.76;62.29;100429.47;20896584;28;20083;-69
2022/08/01 08:36:24;;;;;;;2.85;1.05;;;;;;;24.57;61.23;100429.13;20895796;28;20048;-68
2022/08/01 08:46:32;;;;;;;3.00;1.40;;;;;;;25.01;60.10;100416.94;20895934;28;20087;-69
2022/08/01 08:56:34;;;;;;;1.80;1.08;;;;;;;25.22;58.64;100412.66;20893729;28;20072;-69
2022/08/01 09:06:35;;;;;;;2.03;1.02;;;;;;;25.94;54.54;100414.25;20892722;28;20052;-69
2022/08/01 09:16:36;;;;;;;2.58;1.20;;;;;;;26.44;51.04;100417.38;20893713;28;20072;-69
2022/08/01 09:26:38;;;;;;;4.43;1.33;;;;;;;26.95;50.33;100408.66;20892456;28;20048;-69
2022/08/01 09:36:39;;;;;;;3.60;1.42;;;;;;;27.28;49.74;100421.97;20891428;28;20053;-69
2022/08/01 09:46:41;;;;;;;4.53;1.38;;;;;;;26.98;50.56;100422.69;20861133;28;20053;-69
2022/08/01 09:56:42;;;;;;;3.92;2.17;;;;;;;26.64;51.47;100432.72;20808053;28;20049;-69
2022/08/01 10:06:44;;;;;;;4.32;1.20;;;;;;;26.13;54.11;100422.53;20808039;28;20080;-69
2022/08/01 10:16:46;;;;;;;4.10;1.60;;;;;;;26.27;54.89;100422.25;20807483;28;20537;-70
2022/08/01 10:27:05;;;;;;;2.70;1.40;;;;;;;26.84;51.94;100415.78;20915544;28;20052;-69
2022/08/01 10:37:09;;;;;;;3.10;1.35;;;;;;;27.04;50.29;100398.00;20915719;28;20044;-70
2022/08/01 10:47:11;;;;;;;2.40;1.20;;;;;;;27.39;48.22;100401.38;20916680;28;20417;-70
2022/08/01 10:57:12;;;;;;;1.52;1.10;;;;;;;27.22;48.21;100400.13;20916458;28;20501;-70
2022/08/01 11:07:15;;;;;;;3.37;1.20;;;;;;;27.70;47.64;100386.97;20915600;28;20067;-70
2022/08/01 11:17:16;;;;;;;2.63;1.20;;;;;;;27.43;48.29;100381.31;20872673;28;20060;-70
2022/08/01 11:27:19;;;;;;;3.43;1.60;;;;;;;27.02;49.40;100377.59;20835740;28;20053;-70
2022/08/01 11:37:24;;;;;;;2.92;1.40;;;;;;;27.09;47.46;100376.97;20845843;28;20103;-72
2022/08/01 11:47:30;;;;;;;4.32;1.10;;;;;;;27.49;46.27;100354.72;20859688;28;20085;-72
2022/08/01 11:57:37;;;;;;;2.25;1.30;;;;;;;28.24;44.59;100353.47;20859332;28;20041;-73
2022/08/01 12:07:40;;;;;;;2.40;1.20;;;;;;;29.06;41.17;100347.72;20854440;28;20053;-73
2022/08/01 12:17:41;;;;;;;1.67;1.02;;;;;;;28.59;43.08;100328.69;20853945;28;20142;-73
2022/08/01 12:27:57;;;;;;;3.03;0.95;;;;;;;28.13;42.46;100332.91;20837742;28;20049;-72
2022/08/01 12:37:58;;;;;;;1.98;1.10;;;;;;;28.32;42.43;100321.31;20811885;28;20492;-72
2022/08/01 12:48:00;;;;;;;2.17;1.10;;;;;;;29.07;40.58;100335.06;20823043;28;20477;-72
2022/08/01 12:58:01;;;;;;;3.53;0.93;;;;;;;28.73;41.94;100324.72;20894250;28;20049;-72
2022/08/01 13:08:03;;;;;;;1.45;0.95;;;;;;;28.99;40.42;100318.78;20891936;28;20493;-73
2022/08/01 13:18:07;;;;;;;1.95;1.10;;;;;;;29.02;40.82;100316.63;20890666;28;20455;-70
2022/08/01 13:28:08;;;;;;;2.42;1.00;;;;;;;28.71;40.66;100317.81;20809619;28;20053;-71
2022/08/01 13:38:10;;;;;;;2.05;1.00;;;;;;;28.81;40.76;100322.19;20808266;28;20045;-71
2022/08/01 13:48:11;;;;;;;2.55;0.93;;;;;;;28.85;41.49;100302.03;20808796;28;20037;-71
2022/08/01 13:58:19;;;;;;;4.82;1.10;;;;;;;29.40;40.33;100302.19;20813488;28;20048;-71
2022/08/01 14:08:20;;;;;;;2.30;0.90;;;;;;;29.01;41.46;100297.91;20881732;28;20062;-71
2022/08/01 14:18:25;;;;;;;3.00;0.80;;;;;;;29.08;40.92;100301.72;20888394;28;20091;-71
2022/08/01 14:28:27;;;;;;;1.38;0.82;;;;;;;28.71;42.09;100298.94;20888169;28;20045;-70
2022/08/01 14:38:29;;;;;;;2.40;1.03;;;;;;;29.41;40.46;100305.72;20886766;28;20064;-69
2022/08/01 14:48:34;;;;;;;3.83;0.80;;;;;;;28.53;42.85;100306.88;20887190;28;20048;-69
2022/08/01 14:58:35;;;;;;;3.85;0.90;;;;;;;28.27;43.98;100307.41;20885686;28;20052;-69
2022/08/01 15:08:37;;;;;;;1.80;0.90;;;;;;;27.73;45.06;100306.00;20895716;28;20482;-70
2022/08/01 15:18:38;;;;;;;4.05;0.98;;;;;;;27.67;45.87;100311.91;20902528;28;20089;-70
2022/08/01 15:28:39;;;;;;;3.17;1.20;;;;;;;27.43;46.60;100311.38;20900914;28;20048;-69
2022/08/01 15:38:41;;;;;;;2.53;1.00;;;;;;;27.67;45.52;100298.44;20899731;28;20064;-70
2022/08/01 15:48:43;;;;;;;2.30;0.98;;;;;;;27.80;45.39;100309.88;20860737;28;20111;-70
2022/08/01 15:58:44;;;;;;;3.72;0.90;;;;;;;27.40;46.04;100303.56;20815337;28;20049;-70
2022/08/01 16:08:46;;;;;;;1.50;0.80;;;;;;;27.35;46.54;100322.78;20839861;28;20049;-70
2022/08/01 16:18:47;;;;;;;4.07;0.60;;;;;;;27.36;45.17;100320.00;20881233;28;20781;-70
2022/08/01 16:28:54;;;;;;;1.70;0.68;;;;;;;27.44;44.60;100307.69;20836552;28;20058;-69
2022/08/01 16:38:55;;;;;;;2.78;0.70;;;;;;;27.26;45.80;100320.91;20851701;28;20409;-69
2022/08/01 16:48:56;;;;;;;2.38;0.60;;;;;;;27.03;45.95;100317.50;20894128;28;20118;-69
2022/08/01 16:58:58;;;;;;;3.45;0.70;;;;;;;26.83;46.90;100308.47;20808592;28;20045;-69
2022/08/01 17:08:59;;;;;;;3.22;0.80;;;;;;;26.57;47.76;100316.03;20807402;28;20441;-70
2022/08/01 17:19:01;;;;;;;2.30;0.60;;;;;;;26.60;47.54;100323.84;20852996;28;20502;-69
2022/08/01 17:29:02;;;;;;;1.30;0.60;;;;;;;26.30;47.82;100311.97;20822199;28;20049;-69
2022/08/01 17:39:05;;;;;;;5.03;0.82;;;;;;;26.31;47.31;100318.19;20840671;28;20045;-69
2022/08/01 17:49:06;;;;;;;1.77;0.70;;;;;;;26.21;47.83;100333.34;20789706;28;20357;-69
2022/08/01 17:59:09;;;;;;;1.23;0.60;;;;;;;26.10;48.48;100351.16;20792266;28;20049;-70
2022/08/01 18:09:10;;;;;;;2.53;0.60;;;;;;;26.02;48.67;100350.94;20804463;28;20120;-69
2022/08/01 18:19:12;;;;;;;3.20;0.88;;;;;;;25.93;48.39;100356.19;20801534;28;20042;-69
2022/08/01 18:29:13;;;;;;;2.65;0.60;;;;;;;25.88;48.54;100358.41;20849602;28;20557;-69
2022/08/01 18:39:23;;;;;;;3.10;0.70;;;;;;;25.87;49.15;100356.66;20886349;28;20481;-70
2022/08/01 18:49:27;;;;;;;2.30;0.70;;;;;;;25.65;50.04;100358.38;20843718;28;20046;-70
2022/08/01 18:59:29;;;;;;;4.22;0.52;;;;;;;25.30;50.67;100364.69;20886259;28;20381;-70
2022/08/01 19:09:30;;;;;;;3.33;0.80;;;;;;;25.05;51.94;100372.84;20897388;28;20049;-70
2022/08/01 19:19:31;;;;;;;4.25;0.95;;;;;;;24.92;52.80;100391.69;20817143;28;20045;-70
2022/08/01 19:29:33;;;;;;;4.43;0.75;;;;;;;24.64;53.83;100408.13;20815824;28;20057;-70
2022/08/01 19:39:36;;;;;;;3.50;0.80;;;;;;;24.56;54.29;100417.56;20813978;28;20053;-70
2022/08/01 19:49:37;;;;;;;3.15;0.73;;;;;;;24.43;55.05;100437.31;20814750;28;20060;-70
2022/08/01 19:59:39;;;;;;;2.42;0.70;;;;;;;24.28;56.41;100434.75;20812661;28;20157;-70
2022/08/01 20:09:40;;;;;;;2.38;0.50;;;;;;;24.21;57.37;100444.19;20818518;28;20092;-70
2022/08/01 20:19:42;;;;;;;0.85;0.57;;;;;;;24.13;57.99;100449.25;20895068;28;20056;-70
2022/08/01 20:29:43;;;;;;;6.72;0.90;;;;;;;24.19;58.45;100448.78;20893000;28;20056;-70
2022/08/01 20:39:44;;;;;;;1.13;0.60;;;;;;;23.87;60.19;100466.28;20892246;28;20421;-70
2022/08/01 20:49:46;;;;;;;3.15;1.13;;;;;;;23.73;60.53;100454.75;20851890;28;20478;-70
2022/08/01 20:59:47;;;;;;;3.22;0.70;;;;;;;23.54;61.67;100452.44;20809871;28;20060;-72
2022/08/01 21:09:56;;;;;;;2.72;0.88;;;;;;;23.30;64.06;100463.00;20812061;28;20869;-70
2022/08/01 21:19:57;;;;;;;3.03;0.80;;;;;;;23.06;66.09;100475.34;20890391;28;20103;-70
2022/08/01 21:29:59;;;;;;;4.18;1.15;;;;;;;22.68;69.74;100496.50;20890870;28;20487;-71
2022/08/01 21:40:00;;;;;;;9.10;1.13;;;;;;;22.38;72.82;100494.00;20888814;28;20064;-71
2022/08/01 21:50:10;;;;;;;2.22;1.00;;;;;;;22.20;74.92;100496.00;20887556;28;20076;-70
2022/08/01 22:00:12;;;;;;;5.05;1.08;;;;;;;22.06;76.92;100504.81;20881926;28;20041;-72
2022/08/01 22:10:26;;;;;;;4.40;1.00;;;;;;;22.00;77.44;100506.06;20807846;28;20677;-71
2022/08/01 22:20:27;;;;;;;1.55;0.68;;;;;;;21.95;78.99;100512.63;20810183;28;20506;-71
2022/08/01 22:30:28;;;;;;;4.38;0.95;;;;;;;21.93;79.86;100525.19;20809111;28;20053;-71
2022/08/01 22:40:30;;;;;;;2.05;0.90;;;;;;;21.88;81.31;100516.59;20856443;22;20046;-81
2022/08/01 22:50:33;;;;;;;1.65;0.90;;;;;;;21.64;83.95;100517.13;20972219;28;20053;-81
2022/08/01 23:00:37;;;;;;;4.18;0.90;;;;;;;21.44;85.93;100514.81;20958296;28;20075;-81
2022/08/01 23:10:38;;;;;;;4.25;1.00;;;;;;;21.38;88.32;100517.84;20934645;28;20333;-80
2022/08/01 23:20:39;;;;;;;3.80;1.20;;;;;;;21.25;89.34;100513.19;20941554;28;20063;-81
2022/08/01 23:30:41;;;;;;;3.15;1.10;;;;;;;21.13;90.91;100524.56;20941044;28;20059;-81
2022/08/01 23:40:42;;;;;;;3.13;1.15;;;;;;;21.09;91.51;100516.84;20959777;28;20049;-80
2022/08/01 23:50:44;;;;;;;3.28;1.10;;;;;;;21.04;92.46;100521.56;20959269;28;20045;-81
